Impacts METAR Board
IDs:

KMSP - Minneapolis-St Paul, MN, US

Updated at: 0700 UTC 24 Sep 2018
Potential Impact None Slight Moderate High
Time 23/19Z 23/20Z 23/21Z 23/22Z 23/23Z 24/00Z 24/01Z 24/02Z 24/03Z 24/04Z 24/05Z 24/06Z 24/07Z
Temp74 75 75 75 74 72 69 67 66 63 62 61 60
Dewpt54 53 52 52 52 52 53 54 53 53 53 53 52
Altim30.00 29.98 29.96 29.94 29.94 29.94 29.94 29.94 29.95 29.96 29.96 29.95 29.97
VIS10 10 10 10 10 10 10 10 10 10 10 10 10
CIG-- -- -- -- -- -- 250 200 200 200 250 250 190
CoverSCTSCTSCTSCTSCTSCTBKNBKNBKNBKNOVCOVCOVC
FltCatVFRVFRVFRVFRVFRVFRVFRVFRVFRVFRVFRVFRVFR
WX--------------------------
WDir130150140140140130130140140140150150160
WSpd13 15 11 14 8 9 9 11 12 11 12 11 5
WGst-- 21 19 -- -- -- -- -- -- -- -- -- --
Raw hourly METARs
KMSP 231853Z 13013KT 10SM SCT250 23/12 A3000 RMK AO2 SLP157 T02330122
KMSP 231953Z 15015G21KT 10SM SCT250 24/12 A2998 RMK AO2 PK WND 13026/1913 SLP149 T02390117
KMSP 232053Z 14011G19KT 10SM SCT250 24/11 A2996 RMK AO2 SLP144 T02390111 56023
KMSP 232153Z 14014KT 10SM SCT250 24/11 A2994 RMK AO2 SLP137 T02390111
KMSP 232253Z 14008KT 10SM SCT250 23/11 A2994 RMK AO2 SLP136 T02330111
KMSP 232353Z 13009KT 10SM SCT250 22/11 A2994 RMK AO2 SLP137 T02220111 10244 20222 55008
KMSP 240053Z 13009KT 10SM BKN250 21/12 A2994 RMK AO2 SLP139 T02060117
KMSP 240153Z 14011KT 10SM BKN200 19/12 A2994 RMK AO2 SLP139 T01940122
KMSP 240253Z 14012KT 10SM BKN200 19/12 A2995 RMK AO2 SLP141 T01890117 53005
KMSP 240353Z 14011KT 10SM BKN200 17/12 A2996 RMK AO2 SLP143 T01720117
KMSP 240453Z 15012KT 10SM OVC250 17/12 A2996 RMK AO2 SLP143 T01670117
KMSP 240553Z 15011KT 10SM OVC250 16/12 A2995 RMK AO2 SLP140 T01610117 10222 20161 402440106 50000
KMSP 240653Z 16005KT 10SM OVC190 16/11 A2997 RMK AO2 SLP145 T01560111



Page loaded:  07:10 UTC  |   12:10 AM Pacific  |   01:10 AM Mountain  |   02:10 AM Central  |   03:10 AM Eastern

 

ADVISORIES

FORECASTS

FORECASTS

OBSERVATIONS

USER TOOLS

ABOUT US